Time;durP1;ratioP1;P1;durP2;ratioP2;P2;SDS_P1;SDS_P2;PMS_P1;PMS_P2;Temp;Humidity;BMP_temperature;BMP_pressure;BME280_temperature;BME280_humidity;BME280_pressure;Samples;Min_cycle;Max_cycle;Signal;HPM_P1;HPM_P2
2021/11/25 00:00:42;;;;;;;7.50;6.10;;;6.80;90.40;;;;;;5033530;28;20677;-57
2021/11/25 00:03:11;;;;;;;5.35;4.85;;;6.80;90.40;;;;;;5033010;28;20290;-57
2021/11/25 00:05:39;;;;;;;6.00;5.10;;;6.80;90.50;;;;;;5034305;28;20364;-58
2021/11/25 00:08:07;;;;;;;7.13;5.28;;;6.80;90.60;;;;;;5033896;28;20202;-58
2021/11/25 00:10:35;;;;;;;7.25;6.30;;;6.80;90.50;;;;;;5033160;28;20230;-58
2021/11/25 00:13:02;;;;;;;6.90;5.90;;;6.80;90.50;;;;;;5032994;28;20295;-58
2021/11/25 00:15:30;;;;;;;6.13;5.50;;;6.80;90.70;;;;;;5033124;28;20756;-58
2021/11/25 00:17:57;;;;;;;9.07;5.80;;;6.80;90.80;;;;;;5033353;28;20256;-58
2021/11/25 00:20:26;;;;;;;6.70;5.80;;;6.80;90.90;;;;;;5033330;28;20235;-58
2021/11/25 00:22:53;;;;;;;6.80;6.00;;;6.80;90.90;;;;;;5033307;28;20202;-58
2021/11/25 00:25:21;;;;;;;6.70;6.10;;;6.80;91.10;;;;;;5036306;28;20292;-58
2021/11/25 00:27:48;;;;;;;7.30;6.55;;;6.80;91.20;;;;;;5037454;28;20626;-58
2021/11/25 00:30:16;;;;;;;9.23;6.30;;;6.80;91.30;;;;;;5037366;28;20243;-58
2021/11/25 00:32:44;;;;;;;7.80;6.97;;;6.80;91.50;;;;;;5036972;28;20237;-58
2021/11/25 00:35:13;;;;;;;6.07;5.43;;;6.80;91.60;;;;;;5037083;28;20227;-58
2021/11/25 00:37:42;;;;;;;6.97;5.82;;;6.80;91.60;;;;;;5037134;28;20287;-58
2021/11/25 00:40:12;;;;;;;6.57;5.70;;;6.70;91.50;;;;;;5036728;28;20297;-58
2021/11/25 00:42:39;;;;;;;8.07;6.30;;;6.70;91.70;;;;;;5036769;28;20241;-58
2021/11/25 00:45:08;;;;;;;6.03;5.07;;;6.70;91.80;;;;;;5037013;28;20310;-58
2021/11/25 00:47:35;;;;;;;8.27;5.70;;;6.70;91.80;;;;;;5036871;28;20293;-58
2021/11/25 00:50:03;;;;;;;7.93;5.70;;;6.70;91.80;;;;;;5036616;28;20297;-57
2021/11/25 00:52:30;;;;;;;6.30;5.60;;;6.70;91.80;;;;;;5036856;28;20265;-57
2021/11/25 00:54:59;;;;;;;7.13;5.75;;;6.70;91.90;;;;;;5036783;28;20314;-57
2021/11/25 00:57:26;;;;;;;6.78;5.82;;;6.70;92.00;;;;;;5036885;28;20293;-59
2021/11/25 00:59:53;;;;;;;5.72;5.18;;;6.70;92.00;;;;;;5036469;28;20729;-58
2021/11/25 01:02:21;;;;;;;7.57;6.20;;;6.70;92.00;;;;;;5036661;28;20249;-58
2021/11/25 01:04:50;;;;;;;7.40;6.47;;;6.70;92.00;;;;;;5036165;28;20761;-57
2021/11/25 01:07:17;;;;;;;6.57;5.50;;;6.70;92.10;;;;;;5036115;28;20702;-58
2021/11/25 01:09:45;;;;;;;9.90;6.32;;;6.70;92.20;;;;;;5036370;28;20315;-58
2021/11/25 01:12:13;;;;;;;7.70;6.07;;;6.70;92.30;;;;;;5036444;28;20610;-58
2021/11/25 01:14:40;;;;;;;7.40;5.82;;;6.70;92.30;;;;;;5035905;28;20320;-57
2021/11/25 01:17:08;;;;;;;8.68;5.90;;;6.70;92.40;;;;;;5036086;28;20298;-58
2021/11/25 01:19:36;;;;;;;7.32;6.30;;;6.70;92.50;;;;;;5036210;28;20287;-57
2021/11/25 01:22:05;;;;;;;6.45;5.53;;;6.70;92.60;;;;;;5036028;28;20242;-58
2021/11/25 01:24:32;;;;;;;6.85;6.05;;;6.60;92.50;;;;;;5035978;28;20317;-58
2021/11/25 01:26:59;;;;;;;6.60;5.88;;;6.60;92.60;;;;;;5036051;28;20710;-58
2021/11/25 01:29:28;;;;;;;7.53;6.72;;;6.60;92.70;;;;;;5035809;28;20230;-57
2021/11/25 01:31:55;;;;;;;6.85;5.80;;;6.60;92.80;;;;;;5035816;28;20241;-57
2021/11/25 01:34:22;;;;;;;7.10;5.55;;;6.60;92.90;;;;;;5035970;28;20422;-57
2021/11/25 01:36:50;;;;;;;6.25;5.65;;;6.60;92.90;;;;;;5035301;28;20316;-58
2021/11/25 01:39:17;;;;;;;7.18;5.57;;;6.60;92.90;;;;;;5036256;28;20638;-57
2021/11/25 01:41:45;;;;;;;6.63;5.65;;;6.60;92.90;;;;;;5035977;28;20202;-57
2021/11/25 01:44:12;;;;;;;6.70;6.00;;;6.60;93.20;;;;;;5035623;28;20254;-58
2021/11/25 01:46:41;;;;;;;8.07;5.95;;;6.60;93.00;;;;;;5035819;28;20228;-56
2021/11/25 01:49:09;;;;;;;7.32;6.60;;;6.60;93.00;;;;;;5035585;28;20230;-57
2021/11/25 01:51:36;;;;;;;6.57;5.72;;;6.50;93.00;;;;;;5035766;28;20229;-57
2021/11/25 01:54:03;;;;;;;6.93;6.30;;;6.50;93.10;;;;;;5035230;28;20259;-57
2021/11/25 01:56:31;;;;;;;7.68;6.60;;;6.50;93.30;;;;;;5035658;28;20238;-57
2021/11/25 01:58:59;;;;;;;9.38;6.85;;;6.50;93.30;;;;;;5035590;28;20682;-57
2021/11/25 02:01:33;;;;;;;8.30;6.72;;;6.50;93.50;;;;;;5035473;28;20202;-58
2021/11/25 02:04:03;;;;;;;8.98;6.97;;;6.40;93.60;;;;;;5035249;28;20230;-57
2021/11/25 02:06:31;;;;;;;8.77;6.45;;;6.40;93.70;;;;;;5035673;28;20246;-57
2021/11/25 02:08:59;;;;;;;7.80;6.30;;;6.40;93.90;;;;;;5035954;28;20294;-57
2021/11/25 02:11:26;;;;;;;8.52;7.10;;;6.40;94.00;;;;;;5035887;28;20236;-57
2021/11/25 02:13:54;;;;;;;7.03;6.38;;;6.40;94.10;;;;;;5035698;28;20658;-57
2021/11/25 02:16:21;;;;;;;8.77;7.30;;;6.40;94.20;;;;;;5035789;28;20301;-57
2021/11/25 02:18:48;;;;;;;9.15;6.85;;;6.40;94.40;;;;;;5035997;28;20636;-57
2021/11/25 02:21:17;;;;;;;7.40;6.45;;;6.40;94.50;;;;;;5035496;28;20290;-57
2021/11/25 02:23:45;;;;;;;8.98;8.07;;;6.40;94.70;;;;;;5035119;28;20199;-57
2021/11/25 02:26:12;;;;;;;9.23;6.63;;;6.40;94.80;;;;;;5035515;28;20282;-58
2021/11/25 02:28:40;;;;;;;8.55;7.65;;;6.40;94.90;;;;;;5034981;28;20235;-57
2021/11/25 02:31:08;;;;;;;9.32;7.00;;;6.40;95.00;;;;;;5035279;28;20200;-57
2021/11/25 02:33:38;;;;;;;9.57;8.57;;;6.40;95.10;;;;;;5034899;28;20236;-57
2021/11/25 02:36:05;;;;;;;10.43;6.72;;;6.40;95.30;;;;;;5034671;28;20202;-57
2021/11/25 02:38:34;;;;;;;9.43;7.07;;;6.40;95.40;;;;;;5035031;28;20285;-57
2021/11/25 02:41:01;;;;;;;8.07;6.10;;;6.40;95.50;;;;;;5035105;28;20242;-57
2021/11/25 02:43:31;;;;;;;10.18;7.47;;;6.40;95.50;;;;;;5034784;28;20637;-57
2021/11/25 02:46:00;;;;;;;7.00;6.30;;;6.40;95.60;;;;;;5034623;28;20276;-57
2021/11/25 02:48:29;;;;;;;7.93;7.07;;;6.40;95.70;;;;;;5033364;28;20210;-57
2021/11/25 02:50:58;;;;;;;11.32;7.18;;;6.40;95.80;;;;;;5035005;28;20230;-57
2021/11/25 02:53:28;;;;;;;7.97;6.85;;;6.40;95.80;;;;;;5034483;28;20234;-57
2021/11/25 02:55:58;;;;;;;7.80;6.85;;;6.40;95.80;;;;;;5034497;28;20261;-58
2021/11/25 02:58:25;;;;;;;8.70;6.95;;;6.30;95.80;;;;;;5034448;28;20240;-57
2021/11/25 03:00:54;;;;;;;8.23;6.90;;;6.30;95.80;;;;;;5034112;28;20766;-57
2021/11/25 03:03:22;;;;;;;9.05;7.38;;;6.30;95.80;;;;;;5034160;28;20289;-58
2021/11/25 03:05:51;;;;;;;10.02;6.72;;;6.30;95.90;;;;;;5034066;28;20253;-57
2021/11/25 03:08:20;;;;;;;9.13;6.47;;;6.30;96.00;;;;;;5034411;28;20248;-58
2021/11/25 03:10:49;;;;;;;8.93;6.20;;;6.30;96.10;;;;;;5033919;28;20230;-57
2021/11/25 03:13:21;;;;;;;8.80;7.05;;;6.30;96.20;;;;;;5034140;28;20290;-57
2021/11/25 03:15:48;;;;;;;9.15;7.88;;;6.30;96.60;;;;;;5033842;28;20321;-57
2021/11/25 03:18:16;;;;;;;9.43;7.47;;;6.30;96.40;;;;;;5033814;28;20835;-57
2021/11/25 03:20:46;;;;;;;7.47;6.65;;;6.30;96.50;;;;;;5034234;28;20314;-57
2021/11/25 03:23:15;;;;;;;7.50;6.68;;;6.30;96.50;;;;;;5033850;28;20239;-57
2021/11/25 03:25:44;;;;;;;8.55;7.47;;;6.30;96.50;;;;;;5034040;28;20318;-58
2021/11/25 03:28:11;;;;;;;9.15;6.70;;;6.20;96.60;;;;;;5034873;28;20293;-57
2021/11/25 03:30:40;;;;;;;8.98;6.60;;;6.20;96.70;;;;;;5033998;28;20202;-57
2021/11/25 03:33:09;;;;;;;7.43;6.70;;;6.10;96.70;;;;;;5033828;28;20204;-57
2021/11/25 03:35:37;;;;;;;7.70;6.22;;;6.10;96.90;;;;;;5034276;28;20314;-57
2021/11/25 03:38:06;;;;;;;7.55;6.47;;;6.10;97.00;;;;;;5034527;28;20290;-58
2021/11/25 03:40:35;;;;;;;7.90;6.70;;;6.10;97.00;;;;;;5034219;28;20273;-57
2021/11/25 03:43:02;;;;;;;6.53;5.88;;;6.00;97.00;;;;;;5034267;28;20574;-57
2021/11/25 03:45:29;;;;;;;7.15;6.45;;;6.00;97.20;;;;;;5033996;28;20249;-56
2021/11/25 03:47:58;;;;;;;7.53;6.57;;;6.00;97.20;;;;;;5033798;28;20297;-57
2021/11/25 03:50:25;;;;;;;8.00;6.90;;;6.00;97.30;;;;;;5034118;28;20234;-56
2021/11/25 03:52:53;;;;;;;8.38;7.53;;;6.00;97.40;;;;;;5034438;28;20260;-57
2021/11/25 03:55:20;;;;;;;9.23;6.70;;;5.90;97.50;;;;;;5033878;28;20314;-57
2021/11/25 03:57:48;;;;;;;7.45;6.63;;;6.00;97.60;;;;;;5033851;28;20293;-57
2021/11/25 04:00:19;;;;;;;7.28;5.90;;;5.90;97.60;;;;;;5033962;28;20241;-56
2021/11/25 04:02:48;;;;;;;6.82;6.13;;;5.90;97.70;;;;;;5033626;28;20297;-57
2021/11/25 04:05:17;;;;;;;8.07;5.82;;;5.90;97.70;;;;;;5033531;28;20722;-57
2021/11/25 04:08:56;;;;;;;8.13;6.55;;;6.00;97.60;;;;;;5092185;27;20561;-57
2021/11/25 04:11:23;;;;;;;7.55;6.75;;;6.00;97.70;;;;;;5091447;28;20292;-58
2021/11/25 04:13:50;;;;;;;7.20;6.50;;;6.00;97.60;;;;;;5091553;28;20243;-58
2021/11/25 04:16:17;;;;;;;8.93;6.40;;;6.00;97.60;;;;;;5091488;28;20201;-58
2021/11/25 04:18:45;;;;;;;7.05;6.35;;;6.00;97.60;;;;;;5091306;28;20229;-57
2021/11/25 04:21:12;;;;;;;9.98;7.20;;;6.00;97.70;;;;;;5107447;22;20582;-54
2021/11/25 04:23:39;;;;;;;8.15;6.35;;;6.00;97.80;;;;;;5073113;28;20247;-56
2021/11/25 04:26:08;;;;;;;10.13;6.70;;;6.00;97.90;;;;;;5073359;28;20284;-56
2021/11/25 04:28:35;;;;;;;6.93;6.00;;;6.00;97.90;;;;;;5072580;28;20279;-56
2021/11/25 04:36:43;;;;;;;7.60;6.88;;;6.00;98.00;;;;;;4989349;28;20199;-56
2021/11/25 04:39:13;;;;;;;9.82;6.80;;;6.00;98.00;;;;;;5050556;28;20262;-56
2021/11/25 04:41:42;;;;;;;7.20;6.13;;;6.00;98.00;;;;;;5069606;28;20595;-56
2021/11/25 04:44:09;;;;;;;6.93;6.03;;;6.00;98.00;;;;;;5069653;28;20231;-56
2021/11/25 04:46:37;;;;;;;9.10;6.88;;;6.00;98.00;;;;;;5069747;28;20201;-56
2021/11/25 04:49:04;;;;;;;7.40;6.30;;;6.00;98.00;;;;;;5069648;28;20230;-56
2021/11/25 04:51:32;;;;;;;8.27;5.85;;;6.10;98.00;;;;;;5069423;28;20267;-55
2021/11/25 04:54:00;;;;;;;7.65;5.25;;;6.00;97.90;;;;;;5069902;28;20197;-56
2021/11/25 04:56:27;;;;;;;7.00;5.53;;;6.10;97.90;;;;;;5069462;28;20236;-57
2021/11/25 04:58:55;;;;;;;6.95;6.20;;;6.10;97.60;;;;;;5069594;28;20229;-57
2021/11/25 05:01:23;;;;;;;8.50;5.80;;;6.10;97.50;;;;;;5069409;28;20225;-56
2021/11/25 05:03:50;;;;;;;6.18;5.45;;;6.10;97.30;;;;;;5069300;28;20237;-57
2021/11/25 05:06:17;;;;;;;9.55;6.65;;;6.10;97.10;;;;;;5069486;28;20301;-57
2021/11/25 05:08:45;;;;;;;7.30;6.60;;;6.00;96.60;;;;;;5068964;28;20310;-56
2021/11/25 05:11:13;;;;;;;7.80;7.05;;;6.00;96.40;;;;;;5069054;28;20217;-56
2021/11/25 05:13:40;;;;;;;7.75;6.53;;;6.00;96.30;;;;;;5069465;28;20201;-56
2021/11/25 05:16:09;;;;;;;8.77;7.15;;;6.00;96.20;;;;;;5069000;28;20233;-56
2021/11/25 05:18:36;;;;;;;11.25;7.50;;;6.00;96.10;;;;;;5065124;28;20206;-54
2021/11/25 05:21:04;;;;;;;8.30;6.10;;;6.00;96.00;;;;;;5056001;28;20316;-55
2021/11/25 05:23:31;;;;;;;7.25;6.55;;;6.00;95.90;;;;;;5055995;28;20233;-54
2021/11/25 05:25:58;;;;;;;7.55;6.78;;;6.00;95.90;;;;;;5055889;28;20619;-54
2021/11/25 05:28:26;;;;;;;13.43;7.05;;;6.00;95.70;;;;;;5055995;28;20312;-54
2021/11/25 05:30:53;;;;;;;7.50;6.25;;;6.00;95.70;;;;;;5055581;28;20312;-55
2021/11/25 05:33:22;;;;;;;8.27;7.32;;;6.00;95.70;;;;;;5055855;28;20640;-52
2021/11/25 05:35:49;;;;;;;8.10;7.30;;;6.00;95.60;;;;;;5055801;28;20288;-54
2021/11/25 05:38:16;;;;;;;9.98;8.18;;;6.00;95.20;;;;;;5055462;28;20225;-54
2021/11/25 05:40:45;;;;;;;7.90;7.10;;;6.00;95.20;;;;;;5055235;28;20646;-53
2021/11/25 05:43:12;;;;;;;9.73;8.45;;;6.00;95.00;;;;;;5055280;28;20569;-54
2021/11/25 05:45:39;;;;;;;8.25;6.75;;;6.00;94.90;;;;;;5055545;28;20198;-55
2021/11/25 05:48:07;;;;;;;9.75;7.35;;;6.00;94.70;;;;;;5055271;28;20221;-55
2021/11/25 05:50:36;;;;;;;7.95;7.18;;;6.10;94.60;;;;;;5055341;28;20225;-55
2021/11/25 05:53:03;;;;;;;10.32;7.80;;;6.10;94.50;;;;;;5055610;28;20280;-54
2021/11/25 05:55:31;;;;;;;10.77;7.75;;;6.10;94.40;;;;;;5055159;28;20236;-55
2021/11/25 05:57:58;;;;;;;8.15;7.32;;;6.10;94.00;;;;;;5055297;28;20233;-55
2021/11/25 06:00:26;;;;;;;9.77;7.97;;;6.10;93.90;;;;;;5054992;28;20300;-55
2021/11/25 06:02:54;;;;;;;7.88;6.90;;;6.10;93.90;;;;;;5055435;28;20791;-54
2021/11/25 06:05:23;;;;;;;9.98;8.23;;;6.10;93.70;;;;;;5055496;28;20319;-54
2021/11/25 06:07:52;;;;;;;12.07;8.07;;;6.10;93.90;;;;;;5055015;28;20260;-54
2021/11/25 06:10:21;;;;;;;10.52;7.40;;;6.10;94.00;;;;;;5055644;28;20661;-54
2021/11/25 06:12:50;;;;;;;9.57;8.57;;;6.10;93.90;;;;;;5055742;28;20300;-54
2021/11/25 06:15:17;;;;;;;8.95;8.00;;;6.10;94.00;;;;;;5058312;28;20237;-54
2021/11/25 06:17:45;;;;;;;9.25;8.35;;;6.10;94.10;;;;;;5054706;28;20686;-53
2021/11/25 06:20:13;;;;;;;9.48;8.40;;;6.10;94.10;;;;;;5058363;28;20269;-55
2021/11/25 06:22:42;;;;;;;10.68;8.88;;;6.10;94.10;;;;;;5057535;28;20237;-55
2021/11/25 06:25:12;;;;;;;9.50;8.50;;;6.10;94.10;;;;;;5055050;28;20229;-55
2021/11/25 06:27:40;;;;;;;10.05;7.88;;;6.10;94.10;;;;;;5054262;28;20658;-55
2021/11/25 06:30:10;;;;;;;12.98;8.68;;;6.10;94.10;;;;;;5054249;28;20287;-54
2021/11/25 06:32:38;;;;;;;9.20;8.07;;;6.10;94.20;;;;;;5053948;28;20313;-54
2021/11/25 06:35:09;;;;;;;10.48;8.52;;;6.10;94.10;;;;;;5054259;28;20689;-55
2021/11/25 06:37:37;;;;;;;8.38;7.57;;;6.10;94.10;;;;;;5054560;28;20262;-54
2021/11/25 06:40:05;;;;;;;14.82;8.65;;;6.10;93.90;;;;;;5054189;28;20733;-55
2021/11/25 06:42:34;;;;;;;13.80;8.48;;;6.10;93.90;;;;;;5054016;28;20338;-55
2021/11/25 06:45:01;;;;;;;12.20;9.52;;;6.10;94.00;;;;;;5054543;28;20230;-55
2021/11/25 06:47:28;;;;;;;12.63;9.00;;;6.10;93.90;;;;;;5053814;28;20260;-55
2021/11/25 06:49:55;;;;;;;11.73;9.05;;;6.10;93.90;;;;;;5053996;28;20301;-55
2021/11/25 06:52:23;;;;;;;11.07;8.80;;;6.10;93.90;;;;;;5054278;28;20676;-55
2021/11/25 06:54:50;;;;;;;12.35;9.63;;;6.20;93.90;;;;;;5053757;28;20230;-55
2021/11/25 06:57:17;;;;;;;12.73;8.68;;;6.10;93.80;;;;;;5053883;28;20241;-55
2021/11/25 06:59:46;;;;;;;17.98;9.32;;;6.10;93.60;;;;;;5054493;28;20237;-54
2021/11/25 07:02:14;;;;;;;10.50;8.38;;;6.10;93.60;;;;;;5053815;28;20218;-55
2021/11/25 07:04:41;;;;;;;11.60;8.50;;;6.10;93.60;;;;;;5053969;28;20254;-55
2021/11/25 07:07:08;;;;;;;9.80;8.80;;;6.10;93.20;;;;;;5053915;28;20235;-55
2021/11/25 07:09:36;;;;;;;10.57;9.40;;;6.00;93.00;;;;;;5053681;28;20254;-53
2021/11/25 07:12:04;;;;;;;11.05;9.48;;;6.00;93.10;;;;;;5053597;28;20265;-55
2021/11/25 07:14:31;;;;;;;10.40;9.32;;;6.00;93.10;;;;;;5053736;28;20213;-56
2021/11/25 07:17:00;;;;;;;12.55;9.65;;;6.00;93.20;;;;;;5054423;28;20613;-56
2021/11/25 07:19:28;;;;;;;10.45;9.18;;;6.00;93.30;;;;;;5054115;28;20233;-55
2021/11/25 07:21:55;;;;;;;11.40;9.95;;;6.00;93.10;;;;;;5053929;28;20233;-54
2021/11/25 07:24:22;;;;;;;10.38;9.38;;;6.00;92.90;;;;;;5053810;28;20301;-54
2021/11/25 07:26:49;;;;;;;11.20;9.73;;;6.00;93.00;;;;;;5054439;28;20237;-55
2021/11/25 07:29:17;;;;;;;12.32;10.52;;;5.90;93.00;;;;;;5053789;28;20309;-55
2021/11/25 07:31:46;;;;;;;12.05;10.75;;;6.00;93.00;;;;;;5053052;28;20222;-54
2021/11/25 07:34:14;;;;;;;14.23;11.40;;;5.90;92.90;;;;;;5053285;28;20236;-54
2021/11/25 07:36:42;;;;;;;14.93;11.38;;;5.90;92.90;;;;;;5053247;28;20233;-55
2021/11/25 07:39:09;;;;;;;11.75;10.50;;;5.90;93.00;;;;;;5053556;28;20568;-55
2021/11/25 07:41:38;;;;;;;15.43;11.98;;;5.90;93.10;;;;;;5052742;28;20329;-54
2021/11/25 07:44:06;;;;;;;17.75;11.05;;;5.90;93.20;;;;;;5052962;28;20206;-55
2021/11/25 07:46:33;;;;;;;14.88;12.13;;;5.80;93.60;;;;;;5053160;28;20257;-53
2021/11/25 07:49:02;;;;;;;16.00;13.40;;;5.90;93.50;;;;;;5052736;28;20312;-54
2021/11/25 07:51:32;;;;;;;16.85;13.30;;;5.90;93.60;;;;;;5052977;28;20225;-55
2021/11/25 07:54:01;;;;;;;19.10;14.45;;;5.90;93.60;;;;;;5053646;28;20297;-55
2021/11/25 07:56:28;;;;;;;15.75;13.60;;;5.90;93.70;;;;;;5053891;28;20206;-55
2021/11/25 07:58:55;;;;;;;16.63;13.85;;;5.90;93.60;;;;;;5053978;28;20235;-54
2021/11/25 08:01:23;;;;;;;17.80;13.30;;;6.00;93.70;;;;;;5053021;28;20249;-56
2021/11/25 08:03:50;;;;;;;16.95;14.50;;;6.00;93.80;;;;;;5053423;28;20237;-54
2021/11/25 08:06:17;;;;;;;24.23;14.68;;;6.10;93.90;;;;;;5053016;28;20637;-54
2021/11/25 08:08:46;;;;;;;18.40;15.23;;;6.10;93.90;;;;;;5052518;28;20312;-55
2021/11/25 08:11:14;;;;;;;20.50;16.05;;;6.10;93.80;;;;;;5052976;28;20245;-55
2021/11/25 08:13:41;;;;;;;23.75;15.23;;;6.10;93.90;;;;;;5052952;28;20240;-55
2021/11/25 08:16:13;;;;;;;17.58;14.82;;;6.20;93.90;;;;;;5053177;28;20230;-55
2021/11/25 08:18:40;;;;;;;22.88;16.00;;;6.30;94.00;;;;;;5052600;28;20189;-55
2021/11/25 08:21:08;;;;;;;20.10;16.77;;;6.30;93.90;;;;;;5052741;28;20257;-54
2021/11/25 08:23:35;;;;;;;18.40;14.30;;;6.40;94.00;;;;;;5052471;28;20297;-55
2021/11/25 08:26:03;;;;;;;17.27;14.80;;;6.40;93.80;;;;;;5052652;28;20241;-55
2021/11/25 08:28:31;;;;;;;20.65;15.90;;;6.40;93.70;;;;;;5052269;28;20308;-55
2021/11/25 08:30:58;;;;;;;20.42;16.85;;;6.40;93.60;;;;;;5052434;28;20221;-54
2021/11/25 08:33:25;;;;;;;21.48;15.82;;;6.50;93.50;;;;;;5052683;28;20343;-54
2021/11/25 08:35:53;;;;;;;18.98;16.67;;;6.40;93.40;;;;;;5052307;28;20664;-55
2021/11/25 08:38:20;;;;;;;18.98;16.95;;;6.40;93.20;;;;;;5052451;28;20233;-55
2021/11/25 08:40:47;;;;;;;18.65;14.98;;;6.40;93.20;;;;;;5052291;28;20226;-55
2021/11/25 08:43:17;;;;;;;18.67;15.68;;;6.30;93.40;;;;;;5052404;28;20268;-56
2021/11/25 08:45:44;;;;;;;17.77;14.73;;;6.20;93.40;;;;;;5052166;28;20271;-55
2021/11/25 08:48:11;;;;;;;20.55;16.23;;;6.10;93.50;;;;;;5052081;28;20230;-55
2021/11/25 08:50:39;;;;;;;21.17;16.95;;;6.10;93.70;;;;;;5052142;28;20256;-57
2021/11/25 08:53:06;;;;;;;15.88;13.85;;;6.10;93.90;;;;;;5051850;28;20708;-54
2021/11/25 08:55:35;;;;;;;17.80;14.10;;;6.10;93.90;;;;;;5055459;28;20228;-56
2021/11/25 08:58:02;;;;;;;15.07;13.07;;;6.20;94.10;;;;;;5055954;28;20201;-55
2021/11/25 09:00:33;;;;;;;19.27;15.02;;;6.20;94.10;;;;;;5056215;28;20695;-54
2021/11/25 09:03:00;;;;;;;17.52;14.25;;;6.30;94.30;;;;;;5056310;28;20565;-55
2021/11/25 09:05:29;;;;;;;18.75;15.18;;;6.40;94.00;;;;;;5055665;28;20298;-54
2021/11/25 09:07:57;;;;;;;17.00;14.32;;;6.40;93.80;;;;;;5055876;28;20199;-55
2021/11/25 09:10:24;;;;;;;17.95;14.93;;;6.50;93.60;;;;;;5056208;28;20313;-55
2021/11/25 09:12:52;;;;;;;17.90;13.82;;;6.50;93.60;;;;;;5055968;28;20724;-54
2021/11/25 09:15:20;;;;;;;18.58;13.93;;;6.50;93.50;;;;;;5055733;28;20643;-55
2021/11/25 09:17:48;;;;;;;17.10;14.60;;;6.50;93.40;;;;;;5055704;28;20227;-55
2021/11/25 09:20:16;;;;;;;18.70;15.15;;;6.50;93.30;;;;;;5055231;28;20232;-55
2021/11/25 09:22:43;;;;;;;19.23;13.93;;;6.50;93.20;;;;;;5055124;28;20289;-55
2021/11/25 09:25:11;;;;;;;17.00;15.23;;;6.50;93.20;;;;;;5056223;28;20339;-55
2021/11/25 09:27:38;;;;;;;16.35;13.73;;;6.50;93.00;;;;;;5055175;28;20237;-55
2021/11/25 09:30:06;;;;;;;16.77;14.60;;;6.60;93.00;;;;;;5055235;28;20771;-55
2021/11/25 09:32:34;;;;;;;17.00;14.10;;;6.70;92.90;;;;;;5054970;28;20720;-56
2021/11/25 09:35:02;;;;;;;15.80;13.27;;;6.80;92.60;;;;;;5055149;28;20237;-54
2021/11/25 09:37:30;;;;;;;17.10;14.20;;;6.90;92.30;;;;;;5055150;28;20298;-55
2021/11/25 09:39:57;;;;;;;16.63;13.55;;;7.00;91.90;;;;;;5055378;28;20288;-55
2021/11/25 09:42:24;;;;;;;15.30;13.70;;;7.10;91.70;;;;;;5055156;28;20613;-56
2021/11/25 09:44:52;;;;;;;14.30;12.18;;;7.10;91.20;;;;;;5054985;28;20341;-55
2021/11/25 09:47:19;;;;;;;14.25;12.75;;;7.10;90.30;;;;;;5055195;28;20202;-55
2021/11/25 09:49:46;;;;;;;15.10;13.50;;;7.10;90.30;;;;;;5054724;28;20614;-55
2021/11/25 09:52:15;;;;;;;12.35;10.82;;;7.00;90.20;;;;;;5054792;28;20304;-55
2021/11/25 09:54:42;;;;;;;17.70;12.90;;;7.00;89.60;;;;;;5055287;28;20244;-56
2021/11/25 09:57:10;;;;;;;13.30;11.90;;;7.00;89.70;;;;;;5055204;28;20234;-56
2021/11/25 09:59:37;;;;;;;13.82;12.45;;;6.90;89.70;;;;;;5055618;28;20198;-54
2021/11/25 10:02:04;;;;;;;15.50;13.15;;;6.90;89.90;;;;;;5055238;28;20266;-56
2021/11/25 10:04:32;;;;;;;17.00;14.38;;;6.90;89.70;;;;;;5055501;28;20237;-55
2021/11/25 10:07:00;;;;;;;14.77;13.25;;;6.90;89.90;;;;;;5055022;28;20652;-55
2021/11/25 10:09:38;;;;;;;14.35;12.80;;;7.00;90.00;;;;;;5054591;28;20270;-55
2021/11/25 10:12:26;;;;;;;14.82;13.23;;;7.10;90.00;;;;;;5054963;28;20253;-56
2021/11/25 10:14:54;;;;;;;14.07;12.65;;;7.20;89.70;;;;;;5054866;28;20194;-55
2021/11/25 10:17:44;;;;;;;14.55;13.00;;;7.20;89.50;;;;;;5054580;28;20254;-55
2021/11/25 10:20:15;;;;;;;15.20;13.77;;;7.30;89.40;;;;;;5055292;28;20238;-55
2021/11/25 10:23:17;;;;;;;17.13;12.70;;;7.30;88.70;;;;;;5071380;22;20246;-56
2021/11/25 10:25:49;;;;;;;17.05;12.82;;;7.30;88.80;;;;;;5034525;28;20538;-57
2021/11/25 10:28:26;;;;;;;15.05;13.07;;;7.30;88.00;;;;;;5034358;28;20216;-56
2021/11/25 10:30:57;;;;;;;15.52;13.88;;;7.30;88.10;;;;;;5034242;28;20210;-59
2021/11/25 10:33:28;;;;;;;19.13;14.32;;;7.40;88.20;;;;;;5034395;28;20618;-57
2021/11/25 10:39:35;;;;;;;15.88;12.63;;;7.50;88.20;;;;;;5034669;28;20179;-57
2021/11/25 10:42:05;;;;;;;15.65;14.05;;;7.50;87.60;;;;;;5033389;28;20231;-57
2021/11/25 10:44:35;;;;;;;16.40;13.63;;;7.50;87.00;;;;;;5034142;28;20230;-57
2021/11/25 10:47:06;;;;;;;16.17;12.52;;;7.50;86.90;;;;;;5034344;28;20236;-57
2021/11/25 10:49:48;;;;;;;15.70;13.05;;;7.60;86.70;;;;;;5033891;28;20202;-57
2021/11/25 10:52:23;;;;;;;14.57;12.30;;;7.50;86.40;;;;;;5033643;28;20313;-56
2021/11/25 10:54:54;;;;;;;14.98;13.35;;;7.50;85.90;;;;;;5033711;28;20189;-57
2021/11/25 10:57:23;;;;;;;14.88;12.88;;;7.50;85.60;;;;;;5033543;28;20232;-56
2021/11/25 10:59:53;;;;;;;12.95;11.65;;;7.40;85.50;;;;;;5033589;28;20238;-57
2021/11/25 11:02:28;;;;;;;13.98;12.50;;;7.40;85.40;;;;;;5033541;28;20309;-57
2021/11/25 11:04:56;;;;;;;13.23;11.77;;;7.30;85.70;;;;;;5033306;28;20277;-57
2021/11/25 11:07:26;;;;;;;15.70;13.07;;;7.30;86.00;;;;;;5033673;28;20236;-56
2021/11/25 11:09:56;;;;;;;13.50;12.10;;;7.30;86.20;;;;;;5033744;28;20302;-56
2021/11/25 11:12:30;;;;;;;13.93;12.13;;;7.30;86.20;;;;;;5033473;28;20308;-56
2021/11/25 11:15:12;;;;;;;16.92;13.63;;;7.30;86.10;;;;;;5033939;28;20191;-57
2021/11/25 11:17:59;;;;;;;14.45;12.95;;;7.30;85.90;;;;;;5033508;28;20658;-57
2021/11/25 11:20:28;;;;;;;15.93;14.23;;;7.30;86.20;;;;;;5033712;28;20178;-57
2021/11/25 11:22:57;;;;;;;16.67;14.98;;;7.30;86.40;;;;;;5033076;28;20238;-57
2021/11/25 11:25:26;;;;;;;15.55;13.77;;;7.30;86.80;;;;;;5033552;28;20737;-57
2021/11/25 11:27:57;;;;;;;15.15;13.65;;;7.30;86.90;;;;;;5033069;28;20733;-57
2021/11/25 11:30:25;;;;;;;19.42;15.13;;;7.30;86.90;;;;;;5033093;28;20298;-57
2021/11/25 11:32:54;;;;;;;18.48;14.35;;;7.30;86.70;;;;;;5033056;28;20262;-57
2021/11/25 11:35:23;;;;;;;16.95;14.45;;;7.30;86.90;;;;;;5032899;28;20262;-57
2021/11/25 11:37:52;;;;;;;20.50;15.25;;;7.30;87.20;;;;;;5033071;28;20203;-57
2021/11/25 11:40:23;;;;;;;17.00;14.57;;;7.30;87.10;;;;;;5033073;28;20201;-57
2021/11/25 11:42:54;;;;;;;16.42;14.68;;;7.30;87.00;;;;;;5032566;28;20314;-58
2021/11/25 11:45:23;;;;;;;16.80;13.10;;;7.30;87.00;;;;;;5033152;28;20293;-57
2021/11/25 11:47:54;;;;;;;15.82;14.00;;;7.40;87.10;;;;;;5033264;28;20230;-56
2021/11/25 11:50:30;;;;;;;16.40;13.57;;;7.40;87.00;;;;;;5033194;28;20206;-58
2021/11/25 11:52:59;;;;;;;15.95;14.07;;;7.40;87.00;;;;;;5033088;28;20590;-57
2021/11/25 11:55:35;;;;;;;15.90;14.25;;;7.50;86.90;;;;;;5032883;28;20678;-57
2021/11/25 11:58:31;;;;;;;17.20;14.45;;;7.50;86.80;;;;;;5032848;28;20198;-58
2021/11/25 12:01:00;;;;;;;14.95;13.05;;;7.60;86.20;;;;;;5032801;28;20296;-57
2021/11/25 12:03:37;;;;;;;17.05;12.60;;;7.60;86.00;;;;;;5032761;28;20368;-57
2021/11/25 12:06:05;;;;;;;16.70;14.50;;;7.50;85.20;;;;;;5033056;28;20221;-58
2021/11/25 12:08:46;;;;;;;16.38;14.55;;;7.40;85.40;;;;;;5032932;28;20298;-56
2021/11/25 12:11:22;;;;;;;15.80;13.27;;;7.40;85.70;;;;;;5032841;28;20309;-58
2021/11/25 12:14:03;;;;;;;18.35;13.98;;;7.30;85.70;;;;;;5032778;28;20229;-58
2021/11/25 12:16:33;;;;;;;17.88;14.73;;;7.40;85.90;;;;;;5032761;28;20540;-57
2021/11/25 12:19:04;;;;;;;15.40;12.57;;;7.40;85.70;;;;;;5032786;28;20222;-57
2021/11/25 12:21:34;;;;;;;15.63;12.43;;;7.40;85.30;;;;;;5032390;28;20713;-58
2021/11/25 12:24:18;;;;;;;16.17;13.48;;;7.30;85.10;;;;;;5032468;28;20220;-57
2021/11/25 12:27:05;;;;;;;16.27;13.13;;;7.20;85.30;;;;;;5032280;28;20233;-58
2021/11/25 12:29:54;;;;;;;17.80;14.98;;;7.10;85.80;;;;;;5034099;28;20206;-57
2021/11/25 12:32:35;;;;;;;16.70;12.95;;;7.20;86.40;;;;;;5036041;28;20220;-56
2021/11/25 12:35:25;;;;;;;17.58;14.27;;;7.20;86.50;;;;;;5036632;28;20190;-57
2021/11/25 12:37:56;;;;;;;16.83;14.10;;;7.30;86.80;;;;;;5036213;28;20289;-58
2021/11/25 12:40:41;;;;;;;18.10;15.73;;;7.30;86.80;;;;;;5036221;28;20200;-58
2021/11/25 12:43:10;;;;;;;17.23;14.50;;;7.30;86.70;;;;;;5036055;28;20278;-57
2021/11/25 12:45:41;;;;;;;17.90;14.85;;;7.30;87.20;;;;;;5036205;28;20234;-57
2021/11/25 12:48:33;;;;;;;17.83;15.15;;;7.30;87.50;;;;;;5036190;28;20338;-57
2021/11/25 12:51:05;;;;;;;19.58;14.90;;;7.30;87.50;;;;;;5032828;28;20666;-56
2021/11/25 12:53:35;;;;;;;20.58;15.70;;;7.40;87.50;;;;;;5036197;28;20282;-57
2021/11/25 12:56:10;;;;;;;17.48;15.48;;;7.40;87.50;;;;;;5035714;28;20796;-58
2021/11/25 12:58:50;;;;;;;19.77;14.82;;;7.40;87.70;;;;;;5035750;28;20281;-58
2021/11/25 13:01:23;;;;;;;21.08;16.67;;;7.30;87.80;;;;;;5035657;28;20263;-58
2021/11/25 13:04:02;;;;;;;19.73;16.63;;;7.20;88.30;;;;;;5035844;28;20627;-58
2021/11/25 13:06:30;;;;;;;19.15;14.60;;;7.20;89.00;;;;;;5036695;28;20214;-58
2021/11/25 13:09:02;;;;;;;19.20;14.93;;;7.20;89.20;;;;;;5036071;28;20206;-58